地図

経路データ

SID SEASON NUMBER BASIN SUBBASIN NAME ISO_TIME NATURE LAT LON WMO_WIND WMO_PRES WMO_AGENCY TRACK_TYPE DIST2LAND LANDFALL IFLAG USA_AGENCY USA_ATCF_ID USA_LAT USA_LON USA_RECORD USA_STATUS USA_WIND USA_PRES USA_SSHS USA_R34_NE USA_R34_SE USA_R34_SW USA_R34_NW USA_R50_NE USA_R50_SE USA_R50_SW USA_R50_NW USA_R64_NE USA_R64_SE USA_R64_SW USA_R64_NW USA_POCI USA_ROCI USA_RMW USA_EYE TOKYO_LAT TOKYO_LON TOKYO_GRADE TOKYO_WIND TOKYO_PRES TOKYO_R50_DIR TOKYO_R50_LONG TOKYO_R50_SHORT TOKYO_R30_DIR TOKYO_R30_LONG TOKYO_R30_SHORT TOKYO_LAND CMA_LAT CMA_LON CMA_CAT CMA_WIND CMA_PRES HKO_LAT HKO_LON HKO_CAT HKO_WIND HKO_PRES NEWDELHI_LAT NEWDELHI_LON NEWDELHI_GRADE NEWDELHI_WIND NEWDELHI_PRES NEWDELHI_CI NEWDELHI_DP NEWDELHI_POCI REUNION_LAT REUNION_LON REUNION_TYPE REUNION_WIND REUNION_PRES REUNION_TNUM REUNION_CI REUNION_RMW REUNION_R34_NE REUNION_R34_SE REUNION_R34_SW REUNION_R34_NW REUNION_R50_NE REUNION_R50_SE REUNION_R50_SW REUNION_R50_NW REUNION_R64_NE REUNION_R64_SE REUNION_R64_SW REUNION_R64_NW BOM_LAT BOM_LON BOM_TYPE BOM_WIND BOM_PRES BOM_TNUM BOM_CI BOM_RMW BOM_R34_NE BOM_R34_SE BOM_R34_SW BOM_R34_NW BOM_R50_NE BOM_R50_SE BOM_R50_SW BOM_R50_NW BOM_R64_NE BOM_R64_SE BOM_R64_SW BOM_R64_NW BOM_ROCI BOM_POCI BOM_EYE BOM_POS_METHOD BOM_PRES_METHOD NADI_LAT NADI_LON NADI_CAT NADI_WIND NADI_PRES WELLINGTON_LAT WELLINGTON_LON WELLINGTON_WIND WELLINGTON_PRES DS824_LAT DS824_LON DS824_STAGE DS824_WIND DS824_PRES TD9636_LAT TD9636_LON TD9636_STAGE TD9636_WIND TD9636_PRES TD9635_LAT TD9635_LON TD9635_WIND TD9635_PRES TD9635_ROCI NEUMANN_LAT NEUMANN_LON NEUMANN_CLASS NEUMANN_WIND NEUMANN_PRES MLC_LAT MLC_LON MLC_CLASS MLC_WIND MLC_PRES USA_GUST BOM_GUST BOM_GUST_PER REUNION_GUST REUNION_GUST_PER USA_SEAHGT USA_SEARAD_NE USA_SEARAD_SE USA_SEARAD_SW USA_SEARAD_NW STORM_SPEED STORM_DIR
1887320N09115 1887 71 WP MM NOT_NAMED 1887-11-15 16:00:00 NR 9.20000 114.500 main 313 313 __________O___ -1 9.20000 114.500 3 3 307
1887320N09115 1887 71 WP MM NOT_NAMED 1887-11-15 18:00:00 NR 9.25371 114.429 main 327 327 __________P___ -1 9.25371 114.429 3 3 308
1887320N09115 1887 71 WP MM NOT_NAMED 1887-11-15 21:00:00 NR 9.33912 114.317 main 338 338 __________P___ -1 9.33912 114.317 3 3 309
1887320N09115 1887 71 WP MM NOT_NAMED 1887-11-16 00:00:00 NR 9.43703 114.194 main 352 352 __________P___ -1 9.43703 114.194 3 3 310
1887320N09115 1887 71 WP MM NOT_NAMED 1887-11-16 03:00:00 NR 9.55495 114.052 main 369 379 __________P___ -1 9.55495 114.052 3 4 311
1887320N09115 1887 71 WP MM NOT_NAMED 1887-11-16 04:00:00 NR 9.60000 114.000 main 379 379 __________O___ -1 9.60000 114.000 4 4 312
1887320N09115 1887 71 WP MM NOT_NAMED 1887-11-16 06:00:00 NR 9.69954 113.886 main 393 393 __________P___ -1 9.69954 113.886 4 5 312
1887320N09115 1887 71 WP MM NOT_NAMED 1887-11-16 09:00:00 NR 9.86777 113.697 main 421 421 __________P___ -1 9.86777 113.697 4 5 312
1887320N09115 1887 71 WP MM NOT_NAMED 1887-11-16 12:00:00 NR 10.0504 113.491 main 449 449 __________P___ -1 10.0504 113.491 4 6 312
1887320N09115 1887 71 WP MM NOT_NAMED 1887-11-16 15:00:00 NR 10.2380 113.274 main 474 462 __________P___ -1 10.2380 113.274 4 6 311
1887320N09115 1887 71 WP MM NOT_NAMED 1887-11-16 16:00:00 NR 10.3000 113.200 main 462 447 __________O___ -1 10.3000 113.200 4 6 310
1887320N09115 1887 71 WP MM NOT_NAMED 1887-11-16 18:00:00 NR 10.4193 113.053 main 447 408 __________P___ -1 10.4193 113.053 4 6 309
1887320N09115 1887 71 WP MM NOT_NAMED 1887-11-16 21:00:00 NR 10.5983 112.826 main 408 380 __________P___ -1 10.5983 112.826 4 6 308
1887320N09115 1887 71 WP MM NOT_NAMED 1887-11-17 00:00:00 NR 10.7746 112.598 main 380 356 __________P___ -1 10.7746 112.598 4 6 308
1887320N09115 1887 71 WP MM NOT_NAMED 1887-11-17 03:00:00 NR 10.9450 112.373 main 356 342 __________P___ -1 10.9450 112.373 4 6 308
1887320N09115 1887 71 WP MM NOT_NAMED 1887-11-17 04:00:00 NR 11.0000 112.300 main 342 328 __________O___ -1 11.0000 112.300 4 5 308
1887320N09115 1887 71 WP MM NOT_NAMED 1887-11-17 06:00:00 NR 11.1057 112.161 main 328 301 __________P___ -1 11.1057 112.161 4 5 308
1887320N09115 1887 71 WP MM NOT_NAMED 1887-11-17 09:00:00 NR 11.2579 111.959 main 301 278 __________P___ -1 11.2579 111.959 4 5 307
1887320N09115 1887 71 WP MM NOT_NAMED 1887-11-17 12:00:00 NR 11.4054 111.761 main 278 252 __________P___ -1 11.4054 111.761 4 5 307
1887320N09115 1887 71 WP MM NOT_NAMED 1887-11-17 15:00:00 NR 11.5512 111.565 main 252 242 __________P___ -1 11.5512 111.565 4 5 307
1887320N09115 1887 71 WP MM NOT_NAMED 1887-11-17 16:00:00 NR 11.6000 111.500 main 242 229 __________O___ -1 11.6000 111.500 4 5 307
1887320N09115 1887 71 WP MM NOT_NAMED 1887-11-17 18:00:00 NR 11.6984 111.368 main 229 205 __________P___ -1 11.6984 111.368 4 5 307
1887320N09115 1887 71 WP MM NOT_NAMED 1887-11-17 21:00:00 NR 11.8476 111.169 main 205 176 __________P___ -1 11.8476 111.169 4 5 307
1887320N09115 1887 71 WP MM NOT_NAMED 1887-11-18 00:00:00 NR 11.9982 110.969 main 176 151 __________P___ -1 11.9982 110.969 4 5 308
1887320N09115 1887 71 WP MM NOT_NAMED 1887-11-18 03:00:00 NR 12.1495 110.767 main 151 137 __________P___ -1 12.1495 110.767 4 5 308
1887320N09115 1887 71 WP MM NOT_NAMED 1887-11-18 04:00:00 NR 12.2000 110.700 main 137 __________O___ -1 12.2000 110.700 4 5 305

デジタル台風データ・検索

IBTrACS Databaseについて

本データベースは、米国NOAAが公開する1842年以降の世界の熱帯低気圧のベストトラックデータアーカイブInternational Best Track Archive for Climate Stewardship (IBTrACS)を、ウェブで閲覧しやすい形式に変換したものです。

最終更新日:2021-11-26